Time;durP1;ratioP1;P1;durP2;ratioP2;P2;SDS_P1;SDS_P2;PMS_P1;PMS_P2;Temp;Humidity;BMP_temperature;BMP_pressure;BME280_temperature;BME280_humidity;BME280_pressure;Samples;Min_cycle;Max_cycle;Signal;HPM_P1;HPM_P2
2022/02/07 00:00:40;;;;;;;4.18;1.10;;;;;;;3.47;100.00;99213.06;6343347;22;20022;-95
2022/02/07 00:03:17;;;;;;;1.98;1.02;;;;;;;3.44;99.68;99204.50;6321386;22;20044;-96
2022/02/07 00:05:45;;;;;;;3.33;1.20;;;;;;;3.38;98.18;99197.72;6353293;22;20019;-95
2022/02/07 00:08:16;;;;;;;1.77;1.13;;;;;;;3.46;99.63;99223.59;6339605;22;20019;-94
2022/02/07 00:10:45;;;;;;;3.88;1.40;;;;;;;3.35;98.30;99216.13;6345496;22;20019;-95
2022/02/07 00:13:15;;;;;;;4.07;1.25;;;;;;;3.56;95.38;99251.13;6322430;22;20018;-95
2022/02/07 00:15:44;;;;;;;1.65;1.02;;;;;;;3.59;94.72;99244.94;6348276;22;20018;-94
2022/02/07 00:18:16;;;;;;;6.43;1.25;;;;;;;3.52;97.04;99246.91;6323696;22;20042;-94
2022/02/07 00:20:45;;;;;;;3.67;1.27;;;;;;;3.70;97.20;99295.13;6325466;22;20018;-94
2022/02/07 00:23:21;;;;;;;2.92;1.20;;;;;;;3.55;96.15;99269.50;6350242;22;20074;-95
2022/02/07 00:25:50;;;;;;;3.53;1.27;;;;;;;3.69;96.00;99309.13;6355365;22;20010;-94
2022/02/07 00:28:19;;;;;;;2.58;1.30;;;;;;;3.56;94.63;99284.31;6348493;22;20068;-94
2022/02/07 00:30:46;;;;;;;5.25;1.10;;;;;;;3.57;93.25;99286.88;6343200;22;20049;-94
2022/02/07 00:33:19;;;;;;;5.93;1.30;;;;;;;3.60;94.88;99320.81;6311566;22;20015;-94
2022/02/07 00:35:47;;;;;;;4.50;1.38;;;;;;;3.47;94.86;99314.25;6338646;22;20014;-95
2022/02/07 00:38:19;;;;;;;4.53;1.45;;;;;;;3.30;94.63;99291.34;6310621;22;20053;-94
2022/02/07 00:43:46;;;;;;;3.85;1.13;;;;;;;3.63;91.06;99333.75;6339077;22;20022;-92
2022/02/07 00:46:30;;;;;;;6.95;1.40;;;;;;;3.58;89.30;99317.38;6300891;22;20018;-95
2022/02/07 00:48:58;;;;;;;7.00;1.40;;;;;;;3.55;90.93;99322.72;6285727;22;20015;-94
2022/02/07 00:51:27;;;;;;;5.85;1.67;;;;;;;3.57;88.50;99346.22;6282896;22;20018;-92
2022/02/07 00:53:54;;;;;;;7.75;1.63;;;;;;;3.48;92.08;99347.38;6309512;22;20019;-92
2022/02/07 00:56:22;;;;;;;7.38;1.10;;;;;;;3.53;88.80;99346.31;6337735;22;20023;-92
2022/02/07 00:58:50;;;;;;;10.68;1.48;;;;;;;3.46;91.98;99339.59;6336431;22;20519;-92
2022/02/07 01:01:27;;;;;;;6.60;1.40;;;;;;;3.41;90.76;99340.66;6337917;22;20015;-93
2022/02/07 01:04:04;;;;;;;4.93;1.05;;;;;;;3.34;90.92;99353.09;6336970;22;20041;-94
2022/02/07 01:06:38;;;;;;;5.13;1.17;;;;;;;3.35;89.99;99359.19;6336191;22;20022;-92
2022/02/07 01:09:20;;;;;;;5.20;1.40;;;;;;;3.55;90.99;99414.34;6337765;22;20407;-92
2022/02/07 01:17:55;;;;;;;11.85;1.23;;;;;;;3.29;93.46;99398.66;6338157;22;20354;-94
2022/02/07 01:23:04;;;;;;;7.07;1.25;;;;;;;3.41;92.83;99464.53;6338825;22;20111;-93
2022/02/07 01:53:26;;;;;;;5.45;0.98;;;;;;;2.31;100.00;99615.94;6304064;22;20064;-95
2022/02/07 01:55:59;;;;;;;4.57;0.60;;;;;;;2.39;99.51;99624.41;6301034;22;20015;-95
2022/02/07 01:58:27;;;;;;;5.07;0.70;;;;;;;2.40;98.99;99610.47;6303731;22;20023;-94
2022/02/07 02:01:02;;;;;;;5.72;0.75;;;;;;;2.37;96.89;99602.69;6303106;22;20027;-94
2022/02/07 02:03:32;;;;;;;4.38;0.75;;;;;;;2.40;97.32;99620.06;6307306;22;20429;-94
2022/02/07 02:06:02;;;;;;;3.20;0.73;;;;;;;2.55;95.69;99639.69;6304236;22;20055;-93
2022/02/07 02:08:30;;;;;;;3.92;0.70;;;;;;;2.52;94.32;99630.19;6304758;22;20020;-93
2022/02/07 02:11:03;;;;;;;6.90;0.93;;;;;;;2.57;94.92;99648.34;6303991;22;20022;-94
2022/02/07 02:13:53;;;;;;;6.03;0.90;;;;;;;2.67;95.39;99682.06;6300896;22;20012;-93
2022/02/07 02:45:21;;;;;;;9.73;1.13;;;;;;;2.54;94.26;99764.28;6334883;22;20033;-94
2022/02/07 02:47:22;;;;;;;7.13;0.90;;;;;;;2.75;90.80;99794.28;6334663;22;20015;-94
2022/02/07 02:50:03;;;;;;;5.07;0.90;;;;;;;2.64;88.88;99785.84;6332128;22;20022;-93
2022/02/07 02:52:31;;;;;;;8.15;1.38;;;;;;;2.56;91.51;99801.69;6306263;22;20056;-94
2022/02/07 02:55:07;;;;;;;6.80;1.10;;;;;;;2.58;89.38;99799.06;6332750;22;20014;-94
2022/02/07 02:57:35;;;;;;;6.30;1.48;;;;;;;2.39;89.01;99775.09;6333009;22;20019;-94
2022/02/07 03:00:04;;;;;;;8.35;1.83;;;;;;;2.62;89.08;99816.38;6331117;22;20023;-93
2022/02/07 03:02:31;;;;;;;6.75;1.23;;;;;;;2.60;89.58;99810.34;6332894;22;20018;-94
2022/02/07 03:04:58;;;;;;;9.07;1.27;;;;;;;2.67;90.24;99843.28;6335089;22;20023;-93
2022/02/07 03:07:26;;;;;;;6.93;1.10;;;;;;;2.41;89.70;99804.69;6338685;22;20105;-94
2022/02/07 03:09:55;;;;;;;8.57;1.38;;;;;;;2.48;88.23;99816.72;6346256;22;20150;-93
2022/02/07 03:12:25;;;;;;;6.50;1.40;;;;;;;2.54;90.50;99828.75;6346999;22;20015;-96
2022/02/07 03:14:53;;;;;;;8.88;1.70;;;;;;;2.62;90.36;99853.84;6346117;22;20097;-94
2022/02/07 03:17:20;;;;;;;7.30;1.25;;;;;;;2.57;89.58;99880.97;6312238;22;20465;-92
2022/02/07 03:19:47;;;;;;;8.02;1.10;;;;;;;2.41;92.10;99881.31;6333947;22;20019;-92
2022/02/07 03:22:15;;;;;;;8.93;1.88;;;;;;;2.54;89.91;99921.09;6337870;22;20030;-93
2022/02/07 03:24:42;;;;;;;9.63;1.02;;;;;;;2.64;90.04;99913.94;6309804;22;20019;-93
2022/02/07 03:27:11;;;;;;;9.40;1.83;;;;;;;2.53;89.98;99887.16;6335940;22;20727;-94
2022/02/07 03:29:38;;;;;;;5.22;1.20;;;;;;;2.55;90.66;99907.13;6341103;22;20022;-93
2022/02/07 03:32:06;;;;;;;5.45;1.58;;;;;;;2.46;90.89;99909.97;6328335;22;20424;-92
2022/02/07 03:34:35;;;;;;;6.47;1.58;;;;;;;2.72;92.90;99961.66;6332569;22;20026;-93
2022/02/07 03:37:03;;;;;;;11.73;1.70;;;;;;;2.85;90.87;99963.09;6332801;22;20010;-94
2022/02/07 03:39:34;;;;;;;12.35;1.80;;;;;;;2.46;93.42;99934.34;6331215;22;20019;-93
2022/02/07 03:42:00;;;;;;;7.30;1.42;;;;;;;2.55;93.04;99948.09;6334303;22;20026;-94
2022/02/07 03:44:33;;;;;;;11.07;2.22;;;;;;;2.53;95.17;99961.19;6333719;22;20519;-92
2022/02/07 03:47:01;;;;;;;13.43;2.08;;;;;;;2.52;94.32;99963.88;6334120;22;20022;-92
2022/02/07 03:49:28;;;;;;;11.27;2.00;;;;;;;2.47;94.20;99962.22;6335571;22;20015;-90
2022/02/07 03:51:57;;;;;;;11.35;2.22;;;;;;;2.39;93.60;99953.66;6337775;22;20022;-91
2022/02/07 03:54:28;;;;;;;10.55;2.13;;;;;;;2.47;93.49;99977.88;6336774;22;20089;-91
2022/02/07 03:56:55;;;;;;;10.10;1.98;;;;;;;2.50;93.00;99986.56;6334658;22;20446;-93
2022/02/07 03:59:23;;;;;;;9.23;2.20;;;;;;;2.68;93.51;100021.00;6332235;22;20030;-92
2022/02/07 04:01:52;;;;;;;11.25;2.15;;;;;;;2.66;92.68;100016.72;6337633;22;20022;-93
2022/02/07 04:04:20;;;;;;;8.88;1.95;;;;;;;2.78;92.81;100045.22;6337417;22;20014;-92
2022/02/07 04:06:47;;;;;;;8.77;1.77;;;;;;;2.79;91.74;100036.47;6337185;22;20021;-92
2022/02/07 04:09:22;;;;;;;6.35;1.85;;;;;;;2.61;89.68;100015.94;6336647;22;20011;-92
2022/02/07 04:11:58;;;;;;;6.90;1.92;;;;;;;2.67;92.08;100049.81;6316100;22;20022;-92
2022/02/07 04:14:25;;;;;;;8.35;1.98;;;;;;;2.64;92.70;100053.34;6346165;22;20084;-93
2022/02/07 04:16:52;;;;;;;13.57;2.25;;;;;;;2.45;93.66;100047.63;6316128;22;20019;-92
2022/02/07 04:19:22;;;;;;;8.40;1.73;;;;;;;2.41;92.35;100058.16;6344399;22;20075;-92
2022/02/07 04:21:53;;;;;;;11.48;2.60;;;;;;;2.63;92.00;100103.91;6337694;22;20021;-91
2022/02/07 04:24:21;;;;;;;12.43;2.40;;;;;;;2.78;91.75;100121.91;6340425;22;20026;-91
2022/02/07 04:26:51;;;;;;;11.48;2.40;;;;;;;2.81;90.13;100128.84;6340847;22;20341;-91
2022/02/07 04:29:22;;;;;;;11.35;2.45;;;;;;;2.81;89.03;100115.75;6336870;22;20070;-91
2022/02/07 04:31:48;;;;;;;10.63;2.80;;;;;;;2.99;88.34;100145.91;6311585;22;20018;-94
2022/02/07 04:34:18;;;;;;;7.28;2.22;;;;;;;2.95;86.98;100128.56;6310701;22;20584;-92
2022/02/07 04:36:49;;;;;;;9.90;2.25;;;;;;;2.91;86.91;100129.50;6337763;22;20079;-92
2022/02/07 04:39:16;;;;;;;11.32;2.28;;;;;;;2.91;87.27;100156.50;6338060;22;20026;-92
2022/02/07 04:41:43;;;;;;;9.98;2.08;;;;;;;2.99;87.35;100172.06;6337763;22;20048;-92
2022/02/07 04:44:21;;;;;;;9.15;2.40;;;;;;;2.78;86.68;100155.03;6338728;22;20045;-92
2022/02/07 04:50:05;;;;;;;11.18;2.20;;;;;;;2.69;86.08;100150.81;6336224;22;20011;-92
2022/02/07 04:55:12;;;;;;;7.45;2.17;;;;;;;2.98;84.61;100213.06;6335301;22;20022;-92
2022/02/07 04:57:48;;;;;;;11.45;2.10;;;;;;;2.97;84.76;100205.25;6306361;22;20080;-94
2022/02/07 05:00:30;;;;;;;5.68;1.50;;;;;;;2.97;82.78;100197.38;6334034;22;20034;-92
2022/02/07 05:03:05;;;;;;;7.55;1.70;;;;;;;3.02;83.15;100222.56;6309010;22;20011;-92
2022/02/07 05:16:25;;;;;;;8.50;1.52;;;;;;;3.18;81.66;100264.97;6334720;22;20312;-95
2022/02/07 05:19:08;;;;;;;7.80;1.80;;;;;;;3.09;81.19;100245.09;6332754;22;20101;-94
2022/02/07 05:21:35;;;;;;;6.28;1.45;;;;;;;2.98;80.39;100220.03;6334806;22;20011;-93
2022/02/07 05:24:03;;;;;;;10.90;1.92;;;;;;;3.22;80.29;100268.41;6334071;22;20083;-91
2022/02/07 05:26:30;;;;;;;10.27;1.70;;;;;;;3.00;81.01;100242.63;6307320;22;20491;-93
2022/02/07 05:29:01;;;;;;;8.63;2.15;;;;;;;3.16;81.19;100270.25;6333680;22;20015;-94
2022/02/07 05:31:28;;;;;;;9.73;2.13;;;;;;;2.93;82.80;100248.88;6337638;22;20011;-94
2022/02/07 05:34:06;;;;;;;9.48;1.83;;;;;;;3.12;82.67;100292.13;6335826;22;20025;-93
2022/02/07 05:36:42;;;;;;;10.63;2.33;;;;;;;3.05;82.80;100274.81;6335844;22;20076;-92
2022/02/07 05:39:19;;;;;;;9.05;1.92;;;;;;;2.98;82.77;100259.28;6314680;22;20026;-92
2022/02/07 05:42:29;;;;;;;8.82;2.17;;;;;;;3.09;83.38;100304.41;6340560;22;20384;-93
2022/02/07 05:45:01;;;;;;;8.27;1.90;;;;;;;3.23;83.21;100331.19;6339145;22;20022;-93
2022/02/07 05:47:31;;;;;;;7.70;2.08;;;;;;;3.04;83.51;100320.19;6341763;22;20113;-93
2022/02/07 05:49:58;;;;;;;10.30;2.13;;;;;;;3.05;83.64;100319.28;6319812;22;20025;-92
2022/02/07 05:52:26;;;;;;;12.45;2.65;;;;;;;3.03;83.46;100333.28;6346950;22;20011;-91
2022/02/07 05:58:24;;;;;;;8.63;2.13;;;;;;;3.08;83.40;100349.78;6344018;22;20049;-91
2022/02/07 06:00:56;;;;;;;12.43;2.25;;;;;;;3.05;83.66;100355.91;6346743;22;20011;-91
2022/02/07 06:03:23;;;;;;;9.20;2.13;;;;;;;3.07;84.51;100385.53;6348382;22;20019;-92
2022/02/07 06:06:14;;;;;;;14.30;2.30;;;;;;;3.14;84.58;100381.06;6330651;22;20048;-92
2022/02/07 06:08:44;;;;;;;9.85;2.65;;;;;;;2.85;84.60;100351.91;6357982;22;20015;-92
2022/02/07 06:12:06;;;;;;;11.68;2.35;;;;;;;3.14;84.76;100410.72;6358563;22;20068;-94
2022/02/07 06:14:36;;;;;;;10.40;1.98;;;;;;;3.26;83.82;100417.50;6332424;22;20028;-92
2022/02/07 06:17:27;;;;;;;5.68;1.58;;;;;;;3.23;84.37;100420.16;6358944;22;20019;-92
2022/02/07 06:19:54;;;;;;;9.70;1.83;;;;;;;3.03;84.44;100401.28;6353104;22;20015;-92
2022/02/07 06:22:22;;;;;;;5.47;2.13;;;;;;;3.21;85.06;100452.47;6350035;22;20014;-89
2022/02/07 06:24:52;;;;;;;16.45;2.65;;;;;;;3.15;84.92;100449.06;6359780;22;20078;-90
2022/02/07 06:27:44;;;;;;;9.40;2.00;;;;;;;3.11;84.05;100429.09;6359227;22;20064;-93
2022/02/07 06:30:11;;;;;;;9.43;2.65;;;;;;;3.29;83.97;100461.06;6353804;22;20038;-91
2022/02/07 06:32:39;;;;;;;10.88;2.35;;;;;;;2.94;83.87;100417.16;6353506;22;20030;-94
2022/02/07 06:35:11;;;;;;;13.25;2.40;;;;;;;2.89;84.61;100413.72;6348565;22;20048;-95
2022/02/07 06:37:40;;;;;;;8.68;1.85;;;;;;;3.17;83.29;100428.09;6346829;22;20019;-94
2022/02/07 06:40:11;;;;;;;15.93;2.53;;;;;;;3.40;83.10;100486.19;6340731;22;20552;-90
2022/02/07 06:42:40;;;;;;;12.23;2.15;;;;;;;3.22;83.59;100469.91;6315880;22;20025;-89
2022/02/07 06:45:14;;;;;;;10.75;2.50;;;;;;;3.07;83.91;100456.16;6343720;22;20026;-89
2022/02/07 06:47:44;;;;;;;14.05;2.22;;;;;;;3.22;83.47;100481.22;6315471;22;20423;-92
2022/02/07 06:50:11;;;;;;;15.02;2.22;;;;;;;3.30;83.13;100494.22;6345815;22;20086;-90
2022/02/07 06:52:38;;;;;;;11.68;2.25;;;;;;;3.16;82.90;100481.31;6349867;22;20034;-91
2022/02/07 06:55:08;;;;;;;13.27;2.28;;;;;;;3.27;82.28;100475.94;6351169;22;20026;-89
2022/02/07 06:57:36;;;;;;;10.93;1.92;;;;;;;3.36;82.54;100515.91;6351901;22;20095;-92
2022/02/07 07:00:06;;;;;;;12.77;1.98;;;;;;;3.28;83.04;100498.59;6348937;22;20053;-90
2022/02/07 07:02:34;;;;;;;12.63;1.75;;;;;;;3.39;82.52;100521.09;6349750;22;20019;-91
2022/02/07 07:05:11;;;;;;;17.80;2.87;;;;;;;3.37;83.29;100538.56;6322498;22;20110;-91
2022/02/07 07:07:38;;;;;;;12.63;2.72;;;;;;;3.33;82.39;100517.69;6342748;22;20456;-90
2022/02/07 07:10:06;;;;;;;13.65;2.13;;;;;;;3.14;82.62;100468.28;6334593;22;20015;-93
2022/02/07 07:12:34;;;;;;;12.43;2.22;;;;;;;3.48;81.93;100531.41;6334883;22;20014;-90
2022/02/07 07:15:14;;;;;;;11.23;2.10;;;;;;;3.49;81.58;100519.19;6337795;22;20053;-89
2022/02/07 07:17:43;;;;;;;17.08;2.65;;;;;;;3.48;83.01;100544.50;6308986;22;20019;-93
2022/02/07 07:20:11;;;;;;;14.57;2.20;;;;;;;3.42;81.61;100525.41;6334012;22;20019;-91
2022/02/07 07:22:41;;;;;;;19.70;3.20;;;;;;;3.41;82.29;100526.31;6338215;22;20030;-91
2022/02/07 07:25:14;;;;;;;11.90;2.30;;;;;;;3.28;81.57;100506.44;6338285;22;20015;-90
2022/02/07 07:28:05;;;;;;;13.90;2.30;;;;;;;3.51;80.81;100535.72;6339354;22;20022;-91
2022/02/07 07:30:40;;;;;;;14.50;2.42;;;;;;;3.58;81.03;100555.72;6337173;22;20054;-90
2022/02/07 07:33:12;;;;;;;13.88;2.78;;;;;;;3.60;81.26;100571.41;6337286;22;20058;-90
2022/02/07 07:35:41;;;;;;;8.15;2.40;;;;;;;3.62;80.88;100574.84;6341727;22;20080;-90
2022/02/07 07:38:13;;;;;;;8.23;1.70;;;;;;;3.75;80.51;100598.22;6354516;22;20057;-87
2022/02/07 07:40:44;;;;;;;10.35;1.95;;;;;;;3.88;78.96;100597.13;6355060;22;20026;-90
2022/02/07 07:43:14;;;;;;;16.67;2.53;;;;;;;3.52;79.22;100535.72;6341759;22;20022;-89
2022/02/07 07:45:56;;;;;;;9.98;1.90;;;;;;;3.76;79.64;100562.41;6338031;22;20034;-88
2022/02/07 07:48:26;;;;;;;10.90;2.03;;;;;;;3.66;79.84;100556.44;6337988;22;20374;-91
2022/02/07 07:50:58;;;;;;;10.35;2.25;;;;;;;4.06;79.73;100606.44;6337679;22;20101;-90
2022/02/07 08:01:59;;;;;;;10.35;2.10;;;;;;;4.06;77.75;100616.91;6336135;22;20057;-95
2022/02/07 08:04:34;;;;;;;13.27;2.67;;;;;;;3.82;78.05;100578.00;6335206;22;20022;-92
2022/02/07 08:07:38;;;;;;;7.95;1.92;;;;;;;4.19;77.97;100625.41;6336242;22;20094;-93
2022/02/07 08:10:47;;;;;;;8.40;2.10;;;;;;;4.27;78.25;100649.72;6337476;22;20015;-91
2022/02/07 08:13:18;;;;;;;7.38;1.90;;;;;;;4.19;78.17;100647.25;6339032;22;20041;-92
2022/02/07 08:15:50;;;;;;;12.52;2.10;;;;;;;4.25;79.11;100684.75;6338738;22;20030;-91
2022/02/07 08:18:25;;;;;;;15.05;2.70;;;;;;;4.19;78.27;100677.84;6339336;22;20079;-92
2022/02/07 08:20:53;;;;;;;10.30;2.45;;;;;;;4.12;78.55;100690.16;6339505;22;20164;-92
2022/02/07 08:23:20;;;;;;;13.48;2.28;;;;;;;4.04;78.32;100663.22;6313403;22;20014;-92
2022/02/07 08:25:49;;;;;;;12.38;2.80;;;;;;;4.28;76.52;100693.41;6338991;22;20029;-91
2022/02/07 08:28:46;;;;;;;;;;;;;;;;;;;;;
2022/02/07 08:31:13;;;;;;;9.18;2.10;;;;;;;4.32;76.50;100692.47;6328814;22;20011;-91
2022/02/07 08:33:41;;;;;;;9.65;2.00;;;;;;;4.25;75.91;100682.13;6341251;22;20561;-91
2022/02/07 08:36:08;;;;;;;16.42;3.20;;;;;;;4.23;76.28;100701.38;6337306;22;20033;-92
2022/02/07 08:38:36;;;;;;;10.85;2.17;;;;;;;4.40;76.33;100713.34;6337007;22;20026;-91
2022/02/07 08:41:03;;;;;;;13.10;2.40;;;;;;;4.52;75.99;100749.81;6335107;22;20136;-92
2022/02/07 08:43:30;;;;;;;10.32;2.13;;;;;;;4.34;76.14;100702.94;6335850;22;20019;-91
2022/02/07 08:45:57;;;;;;;10.38;2.20;;;;;;;4.37;76.05;100727.34;6337243;22;20131;-92
2022/02/07 08:48:26;;;;;;;11.43;2.17;;;;;;;4.44;76.17;100741.22;6339622;22;20018;-91
2022/02/07 08:51:19;;;;;;;13.63;2.67;;;;;;;4.46;76.03;100750.78;6340802;22;20031;-92
2022/02/07 08:54:00;;;;;;;16.48;2.45;;;;;;;4.46;75.42;100748.16;6338860;22;20569;-91
2022/02/07 08:56:51;;;;;;;7.90;2.13;;;;;;;4.74;75.40;100797.53;6345443;22;20101;-92
2022/02/07 08:59:19;;;;;;;17.67;2.78;;;;;;;4.65;76.47;100779.34;6344285;22;20074;-92
2022/02/07 09:01:55;;;;;;;12.75;2.63;;;;;;;4.78;76.10;100797.47;6344631;22;20446;-92
2022/02/07 09:07:24;;;;;;;8.00;2.17;;;;;;;4.66;76.66;100774.06;6350046;22;20068;-93
2022/02/07 09:09:53;;;;;;;9.45;2.58;;;;;;;4.61;76.40;100767.16;6341698;22;20456;-93
2022/02/07 09:12:25;;;;;;;16.10;2.45;;;;;;;4.78;76.36;100800.09;6348585;22;20015;-91
2022/02/07 09:18:11;;;;;;;10.73;2.33;;;;;;;4.86;76.11;100819.22;6351652;22;20023;-92
2022/02/07 09:20:43;;;;;;;9.70;2.22;;;;;;;4.78;75.86;100804.47;6341559;22;20071;-91
2022/02/07 09:23:12;;;;;;;9.80;1.80;;;;;;;5.11;74.64;100809.13;6339284;22;20027;-90
2022/02/07 09:25:42;;;;;;;11.43;1.90;;;;;;;5.20;73.24;100814.22;6341290;22;20097;-91
2022/02/07 09:28:12;;;;;;;7.85;1.90;;;;;;;5.52;72.99;100870.53;6340163;22;20087;-93
2022/02/07 09:30:49;;;;;;;10.10;2.10;;;;;;;5.50;72.73;100854.81;6335176;22;20502;-93
2022/02/07 09:33:20;;;;;;;10.35;2.25;;;;;;;5.60;72.93;100871.25;6336942;22;20460;-92
2022/02/07 09:35:50;;;;;;;9.93;2.25;;;;;;;5.93;73.09;100870.63;6312740;22;20026;-91
2022/02/07 09:38:20;;;;;;;13.90;2.38;;;;;;;6.04;71.10;100822.22;6340574;22;20127;-91
2022/02/07 09:40:52;;;;;;;9.77;2.17;;;;;;;6.65;69.61;100883.06;6337667;22;20022;-92
2022/02/07 09:43:21;;;;;;;11.00;2.15;;;;;;;6.73;67.46;100832.03;6311758;22;20764;-91
2022/02/07 09:45:51;;;;;;;12.18;1.83;;;;;;;7.04;64.71;100873.34;6336261;22;20025;-92
2022/02/07 09:48:22;;;;;;;7.78;2.33;;;;;;;7.08;63.64;100834.66;6313699;22;20045;-92
2022/02/07 09:50:53;;;;;;;8.00;1.83;;;;;;;7.40;61.56;100879.44;6338684;22;20015;-92
2022/02/07 09:53:27;;;;;;;9.88;2.00;;;;;;;7.25;62.03;100882.47;6340516;22;20019;-92
2022/02/07 09:55:58;;;;;;;12.20;2.17;;;;;;;7.21;62.99;100879.97;6340229;22;20011;-92
2022/02/07 09:58:30;;;;;;;6.78;1.90;;;;;;;7.66;61.84;100906.88;6342295;22;20019;-90
2022/02/07 10:01:00;;;;;;;12.50;2.40;;;;;;;7.68;60.57;100878.72;6338293;22;20026;-93
2022/02/07 10:03:56;;;;;;;8.65;2.10;;;;;;;7.23;61.35;100886.94;6342413;22;20011;-92
2022/02/07 10:06:33;;;;;;;5.72;1.80;;;;;;;7.47;61.06;100938.13;6340592;22;20398;-93
2022/02/07 10:15:20;;;;;;;8.05;2.25;;;;;;;8.10;58.63;100924.09;6338362;22;20323;-90
2022/02/07 10:18:07;;;;;;;8.40;1.95;;;;;;;8.65;58.19;100975.34;6313343;22;20027;-90
2022/02/07 10:38:53;;;;;;;12.43;2.38;;;;;;;8.54;57.60;101062.75;6242765;23;19919;-91
2022/02/07 10:44:45;;;;;;;8.93;2.00;;;;;;;8.40;58.00;101064.91;6240804;23;20591;-90
2022/02/07 10:47:30;;;;;;;9.45;1.98;;;;;;;8.15;57.99;101034.78;6242336;23;20022;-90
2022/02/07 10:50:15;;;;;;;12.13;2.40;;;;;;;8.25;57.83;101075.84;6240200;23;20107;-89
2022/02/07 10:53:00;;;;;;;8.70;2.28;;;;;;;8.06;57.64;101049.94;6215027;23;20039;-90
2022/02/07 10:55:28;;;;;;;12.80;2.47;;;;;;;8.27;58.17;101113.59;6240883;23;20016;-90
2022/02/07 10:57:59;;;;;;;8.43;2.22;;;;;;;7.84;58.37;101056.69;6240745;23;20024;-91
2022/02/07 11:00:41;;;;;;;13.65;2.55;;;;;;;8.13;58.69;101086.72;6238655;23;20344;-91
2022/02/07 11:03:19;;;;;;;10.82;2.72;;;;;;;7.81;59.41;101055.88;6240925;23;20103;-90
2022/02/07 11:06:00;;;;;;;13.32;2.67;;;;;;;7.93;59.34;101080.16;6241081;23;20054;-89
2022/02/07 11:08:41;;;;;;;12.77;2.10;;;;;;;7.75;59.54;101070.94;6258855;22;20137;-90
2022/02/07 11:11:30;;;;;;;9.50;2.67;;;;;;;8.18;59.28;101116.50;6306657;22;20076;-92
2022/02/07 11:14:13;;;;;;;10.63;2.10;;;;;;;8.20;59.03;101118.16;6334813;22;20019;-92
2022/02/07 11:17:00;;;;;;;8.10;2.03;;;;;;;7.92;59.53;101106.56;6314790;22;20011;-93
2022/02/07 11:20:00;;;;;;;15.88;2.65;;;;;;;8.14;60.36;101138.56;6313384;22;20015;-95
2022/02/07 11:26:38;;;;;;;8.93;2.28;;;;;;;8.55;59.20;101167.41;6337121;22;20023;-92
2022/02/07 11:29:38;;;;;;;6.85;1.80;;;;;;;8.20;59.51;101139.25;6335352;22;20077;-93
2022/02/07 11:32:43;;;;;;;9.43;2.22;;;;;;;8.16;61.19;101177.22;6337217;22;20015;-93
2022/02/07 11:35:13;;;;;;;11.98;2.13;;;;;;;7.89;62.32;101164.66;6336052;22;20015;-91
2022/02/07 11:37:43;;;;;;;7.05;1.90;;;;;;;7.83;62.87;101165.69;6308349;22;20023;-91
2022/02/07 11:40:31;;;;;;;8.77;1.95;;;;;;;8.20;61.38;101193.81;6334033;22;20022;-92
2022/02/07 11:43:19;;;;;;;9.93;1.80;;;;;;;8.08;62.99;101193.19;6335724;22;20066;-93
2022/02/07 11:46:03;;;;;;;9.63;2.33;;;;;;;7.84;64.14;101204.34;6310907;22;20515;-93
2022/02/07 11:49:08;;;;;;;10.35;2.28;;;;;;;7.62;65.11;101168.81;6333200;22;20083;-95
2022/02/07 11:51:43;;;;;;;11.05;2.67;;;;;;;7.77;65.13;101186.91;6329623;22;20029;-91
2022/02/07 11:54:40;;;;;;;8.98;2.10;;;;;;;7.61;64.10;101156.53;6334891;22;20011;-90
2022/02/07 11:57:20;;;;;;;9.93;2.17;;;;;;;7.81;62.60;101148.16;6338880;22;20022;-90
2022/02/07 12:00:00;;;;;;;5.65;2.22;;;;;;;8.02;62.56;101158.22;6343254;22;20018;-91
2022/02/07 12:02:41;;;;;;;8.90;2.38;;;;;;;8.13;61.30;101147.38;6342601;22;20029;-90
2022/02/07 12:05:27;;;;;;;8.43;2.88;;;;;;;8.30;61.47;101184.78;6316135;22;20023;-90
2022/02/07 12:08:09;;;;;;;7.68;2.03;;;;;;;8.34;60.59;101207.59;6340485;22;20027;-92
2022/02/07 12:10:51;;;;;;;12.40;2.47;;;;;;;7.93;62.03;101175.09;6313517;22;20022;-91
2022/02/07 12:13:43;;;;;;;7.55;2.95;;;;;;;8.17;61.53;101210.59;6311854;22;20334;-92
2022/02/07 12:16:18;;;;;;;10.95;2.30;;;;;;;7.91;62.71;101187.47;6336715;22;20025;-91
2022/02/07 12:19:01;;;;;;;9.20;2.35;;;;;;;8.05;64.45;101253.06;6339592;22;20030;-92
2022/02/07 12:21:33;;;;;;;9.80;2.25;;;;;;;7.56;66.70;101213.75;6336252;22;20022;-93
2022/02/07 12:24:16;;;;;;;11.35;2.30;;;;;;;7.40;68.31;101258.00;6338098;22;20307;-90
2022/02/07 12:27:00;;;;;;;6.75;1.98;;;;;;;7.15;69.93;101247.09;6336540;22;20010;-90
2022/02/07 12:29:49;;;;;;;18.70;2.80;;;;;;;6.97;70.58;101216.69;6334818;22;20034;-90
2022/02/07 12:32:23;;;;;;;15.18;2.80;;;;;;;7.50;70.40;101243.75;6310811;22;20424;-89
2022/02/07 12:34:58;;;;;;;10.52;2.50;;;;;;;7.90;68.86;101213.88;6287296;22;20058;-92
2022/02/07 12:37:34;;;;;;;12.52;2.28;;;;;;;7.99;66.65;101217.19;6340678;22;20083;-91
2022/02/07 12:40:04;;;;;;;11.02;1.98;;;;;;;8.20;66.22;101217.53;6335277;22;20084;-90
2022/02/07 12:42:34;;;;;;;12.10;2.50;;;;;;;9.01;63.76;101274.47;6336184;22;20019;-90
2022/02/07 12:45:03;;;;;;;;;;;;;;;9.08;62.93;101268.13;6335827;22;20014;-92
2022/02/07 12:47:35;;;;;;;8.93;2.30;;;;;;;8.90;60.97;101239.56;6336637;22;19990;-91
2022/02/07 12:50:23;;;;;;;13.23;3.03;;;;;;;9.18;60.85;101245.84;6333417;22;20944;-90
2022/02/07 12:52:58;;;;;;;15.98;2.75;;;;;;;9.35;59.56;101245.34;6331321;22;20080;-90
2022/02/07 12:55:31;;;;;;;9.27;2.08;;;;;;;9.23;58.92;101238.66;6334559;22;20022;-89
2022/02/07 12:58:15;;;;;;;12.38;1.85;;;;;;;8.99;58.48;101220.81;6333265;22;20038;-91
2022/02/07 13:00:42;;;;;;;10.48;2.30;;;;;;;9.38;58.61;101269.94;6329677;22;20019;-90
2022/02/07 13:03:12;;;;;;;10.02;2.33;;;;;;;9.42;57.78;101239.00;6307512;22;20646;-91
2022/02/07 13:05:44;;;;;;;11.85;2.20;;;;;;;10.10;56.55;101255.41;6306117;22;20743;-88
2022/02/07 13:08:18;;;;;;;14.07;2.08;;;;;;;10.60;53.38;101270.63;6337254;22;20015;-90
2022/02/07 13:10:55;;;;;;;11.57;1.73;;;;;;;10.92;50.44;101208.59;6308136;22;20083;-90
2022/02/07 13:13:48;;;;;;;7.28;1.88;;;;;;;11.35;48.56;101211.41;6313526;22;20097;-90
2022/02/07 13:16:23;;;;;;;9.35;2.03;;;;;;;11.71;48.27;101259.56;6334180;22;20070;-91
2022/02/07 13:18:50;;;;;;;;;;;;;;;12.18;46.47;101268.38;6309568;22;20034;-89
2022/02/07 13:21:31;;;;;;;7.70;1.65;;;;;;;11.92;46.39;101245.53;6335289;22;19922;-90
2022/02/07 13:24:34;;;;;;;9.20;2.42;;;;;;;11.78;47.65;101245.19;6334574;22;20040;-92
2022/02/07 13:27:09;;;;;;;9.52;2.28;;;;;;;11.69;47.54;101260.56;6336501;22;20513;-92
2022/02/07 13:29:56;;;;;;;9.38;2.45;;;;;;;11.74;47.65;101280.69;6336240;22;20481;-91
2022/02/07 13:32:34;;;;;;;11.85;2.08;;;;;;;11.21;48.09;101227.84;6336222;22;20404;-90
2022/02/07 13:35:13;;;;;;;6.60;1.98;;;;;;;11.18;47.89;101232.38;6336050;22;20025;-90
2022/02/07 13:37:43;;;;;;;12.63;2.20;;;;;;;11.19;47.91;101281.81;6335816;22;20018;-91
2022/02/07 13:40:25;;;;;;;8.73;1.88;;;;;;;10.50;48.87;101281.53;6338694;22;20345;-92
2022/02/07 13:42:54;;;;;;;8.20;2.00;;;;;;;9.90;52.73;101309.88;6341380;22;20098;-93
2022/02/07 13:45:32;;;;;;;9.27;1.70;;;;;;;9.35;54.78;101322.88;6343405;22;20031;-93
2022/02/07 13:48:06;;;;;;;8.77;1.80;;;;;;;8.74;55.66;101271.66;6314800;22;20022;-89
2022/02/07 13:50:39;;;;;;;10.95;1.90;;;;;;;8.78;56.18;101351.69;6335826;22;20033;-91
2022/02/07 13:53:07;;;;;;;6.38;1.52;;;;;;;8.54;57.93;101344.31;6307173;22;20243;-90
2022/02/07 13:55:39;;;;;;;9.00;1.90;;;;;;;8.21;58.79;101303.72;6335055;22;20015;-90
2022/02/07 13:58:17;;;;;;;9.20;2.30;;;;;;;8.07;59.71;101299.63;6337576;22;20439;-93
2022/02/07 14:01:07;;;;;;;7.32;2.00;;;;;;;7.98;59.89;101301.59;6338372;22;20101;-92
2022/02/07 14:03:38;;;;;;;8.73;1.88;;;;;;;8.31;60.61;101336.94;6343557;22;20015;-92
2022/02/07 14:06:07;;;;;;;9.38;2.13;;;;;;;8.32;60.83;101333.41;6343518;22;20022;-91
2022/02/07 14:08:45;;;;;;;11.30;2.17;;;;;;;7.99;62.22;101296.31;6341564;22;20015;-91
2022/02/07 14:11:20;;;;;;;9.95;1.92;;;;;;;7.94;61.78;101298.16;6312854;22;20018;-92
2022/02/07 14:13:50;;;;;;;11.32;1.75;;;;;;;7.71;61.94;101274.06;6344313;22;20023;-92
2022/02/07 14:16:22;;;;;;;7.68;2.45;;;;;;;7.75;60.85;101294.16;6351549;22;20015;-91
2022/02/07 14:18:52;;;;;;;6.05;1.50;;;;;;;7.67;60.63;101336.53;6349374;22;20111;-90
2022/02/07 14:21:23;;;;;;;6.95;1.67;;;;;;;7.30;59.93;101288.94;6349423;22;20102;-89